Main page
METAR-TAF:

METAR-TAF

Airports :

Exeter Airport

Exeter, England

latitude: 50-44N, longitude: 003-25W, elevation: 30 m

Current weather observation

The report was made 20 minutes ago, at 07:20 UTC
Wind 14 kt from the West
Temperature 12°C
Humidity 54%
Pressure 1000 hPa
Visibility 10 km or more
Few clouds at a height of 2200 ft

METAR: EGTE 050720Z 28014KT 9999 FEW022 12/03 Q1000

Time: 08:40 (07:40 UTC)

Forecast

The report was made 11 hours and 46 minutes ago, at 19:54 UTC
Forecast valid from 04 at 21 UTC to 05 at 02 UTC
Wind 9 kt from the West/Northwest
Visibility 10 km or more
Broken clouds at a height of 2000 ft
Temporary
from 04 at 21 UTC to 05 at 02 UTC
Visibility: 8000 m
Broken clouds at a height of 1200 ft
light rain showers

TAF: EGTE 041954Z 0421/0502 29009KT 9999 BKN020 TEMPO 0421/0502 8000 -SHRA BKN012

Weather observations and forecasts of more than 4000 airports (METAR and TAF reports).

The available stations are represented by yellow and red dots on the map.

Hover mouse over dot to see the name of the station.

Then click to see weather observations and forecasts.

To change the map : click on the green buttons with a black cross to zoom in, on the green button with a dash to zoom out, or on the green arrows for adjacent maps.


METAR-TAF: